sensor_id;sensor_type;location;lat;lon;timestamp;P1;durP1;ratioP1;P2;durP2;ratioP2
49614;SDS011;35517;45.272;9.984;2023-03-14T00:00:13;14.90;;;7.97;;
49614;SDS011;35517;45.272;9.984;2023-03-14T00:02:40;12.48;;;7.53;;
49614;SDS011;35517;45.272;9.984;2023-03-14T00:05:07;17.13;;;7.85;;
49614;SDS011;35517;45.272;9.984;2023-03-14T00:07:35;12.30;;;7.25;;
49614;SDS011;35517;45.272;9.984;2023-03-14T00:23:58;18.55;;;9.13;;
49614;SDS011;35517;45.272;9.984;2023-03-14T00:26:24;14.10;;;8.00;;
49614;SDS011;35517;45.272;9.984;2023-03-14T00:28:51;13.05;;;8.40;;
49614;SDS011;35517;45.272;9.984;2023-03-14T00:31:18;11.10;;;7.05;;
49614;SDS011;35517;45.272;9.984;2023-03-14T00:33:45;13.25;;;7.22;;
49614;SDS011;35517;45.272;9.984;2023-03-14T00:36:12;11.98;;;8.43;;
49614;SDS011;35517;45.272;9.984;2023-03-14T00:38:39;10.82;;;8.27;;
49614;SDS011;35517;45.272;9.984;2023-03-14T00:41:08;16.13;;;7.72;;
49614;SDS011;35517;45.272;9.984;2023-03-14T00:43:35;16.50;;;9.25;;
49614;SDS011;35517;45.272;9.984;2023-03-14T00:46:01;15.15;;;7.32;;
49614;SDS011;35517;45.272;9.984;2023-03-14T00:48:28;15.80;;;8.73;;
49614;SDS011;35517;45.272;9.984;2023-03-14T00:50:54;20.15;;;8.68;;
49614;SDS011;35517;45.272;9.984;2023-03-14T00:53:21;13.45;;;9.02;;
49614;SDS011;35517;45.272;9.984;2023-03-14T00:55:48;15.48;;;9.20;;
49614;SDS011;35517;45.272;9.984;2023-03-14T00:58:15;18.77;;;10.57;;
49614;SDS011;35517;45.272;9.984;2023-03-14T01:00:42;13.63;;;8.60;;
49614;SDS011;35517;45.272;9.984;2023-03-14T01:03:09;15.35;;;9.60;;
49614;SDS011;35517;45.272;9.984;2023-03-14T01:05:36;19.08;;;8.95;;
49614;SDS011;35517;45.272;9.984;2023-03-14T01:08:02;18.67;;;9.13;;
49614;SDS011;35517;45.272;9.984;2023-03-14T01:10:29;14.88;;;9.13;;
49614;SDS011;35517;45.272;9.984;2023-03-14T01:12:57;16.58;;;10.80;;
49614;SDS011;35517;45.272;9.984;2023-03-14T01:15:23;18.55;;;10.75;;
49614;SDS011;35517;45.272;9.984;2023-03-14T01:17:50;18.13;;;10.15;;
49614;SDS011;35517;45.272;9.984;2023-03-14T01:20:17;20.50;;;10.45;;
49614;SDS011;35517;45.272;9.984;2023-03-14T01:22:43;27.05;;;10.50;;
49614;SDS011;35517;45.272;9.984;2023-03-14T01:25:11;20.20;;;9.68;;
49614;SDS011;35517;45.272;9.984;2023-03-14T01:27:38;21.50;;;10.98;;
49614;SDS011;35517;45.272;9.984;2023-03-14T01:30:05;17.45;;;10.15;;
49614;SDS011;35517;45.272;9.984;2023-03-14T01:32:33;17.63;;;11.43;;
49614;SDS011;35517;45.272;9.984;2023-03-14T01:35:00;14.27;;;9.40;;
49614;SDS011;35517;45.272;9.984;2023-03-14T01:37:27;18.33;;;9.68;;
49614;SDS011;35517;45.272;9.984;2023-03-14T01:39:54;15.02;;;9.75;;
49614;SDS011;35517;45.272;9.984;2023-03-14T01:42:20;13.48;;;9.48;;
49614;SDS011;35517;45.272;9.984;2023-03-14T01:47:13;14.77;;;8.93;;
49614;SDS011;35517;45.272;9.984;2023-03-14T01:49:40;14.25;;;8.60;;
49614;SDS011;35517;45.272;9.984;2023-03-14T01:52:10;14.13;;;9.38;;
49614;SDS011;35517;45.272;9.984;2023-03-14T01:54:45;15.80;;;10.43;;
49614;SDS011;35517;45.272;9.984;2023-03-14T01:57:14;17.27;;;10.63;;
49614;SDS011;35517;45.272;9.984;2023-03-14T01:59:43;16.92;;;9.98;;
49614;SDS011;35517;45.272;9.984;2023-03-14T02:02:11;16.83;;;10.10;;
49614;SDS011;35517;45.272;9.984;2023-03-14T02:04:39;13.13;;;8.30;;
49614;SDS011;35517;45.272;9.984;2023-03-14T02:07:12;12.45;;;9.48;;
49614;SDS011;35517;45.272;9.984;2023-03-14T02:09:44;16.40;;;9.65;;
49614;SDS011;35517;45.272;9.984;2023-03-14T02:12:18;16.85;;;9.18;;
49614;SDS011;35517;45.272;9.984;2023-03-14T02:14:50;20.48;;;10.00;;
49614;SDS011;35517;45.272;9.984;2023-03-14T02:17:41;12.75;;;9.73;;
49614;SDS011;35517;45.272;9.984;2023-03-14T02:23:38;22.83;;;10.73;;
49614;SDS011;35517;45.272;9.984;2023-03-14T02:26:11;20.00;;;10.18;;
49614;SDS011;35517;45.272;9.984;2023-03-14T02:28:39;18.75;;;9.63;;
49614;SDS011;35517;45.272;9.984;2023-03-14T02:31:06;24.40;;;10.82;;
49614;SDS011;35517;45.272;9.984;2023-03-14T02:33:34;19.02;;;10.43;;
49614;SDS011;35517;45.272;9.984;2023-03-14T02:36:07;28.05;;;11.80;;
49614;SDS011;35517;45.272;9.984;2023-03-14T02:41:14;14.68;;;9.27;;
49614;SDS011;35517;45.272;9.984;2023-03-14T02:43:46;12.38;;;9.90;;
49614;SDS011;35517;45.272;9.984;2023-03-14T02:46:16;18.55;;;9.38;;
49614;SDS011;35517;45.272;9.984;2023-03-14T02:48:51;18.75;;;9.80;;
49614;SDS011;35517;45.272;9.984;2023-03-14T02:51:20;15.45;;;9.43;;
49614;SDS011;35517;45.272;9.984;2023-03-14T02:53:47;12.27;;;8.60;;
49614;SDS011;35517;45.272;9.984;2023-03-14T02:56:14;20.98;;;10.02;;
49614;SDS011;35517;45.272;9.984;2023-03-14T02:58:41;17.92;;;11.10;;
49614;SDS011;35517;45.272;9.984;2023-03-14T03:01:30;15.80;;;9.98;;
49614;SDS011;35517;45.272;9.984;2023-03-14T03:03:58;16.10;;;9.63;;
49614;SDS011;35517;45.272;9.984;2023-03-14T03:06:24;21.80;;;10.63;;
49614;SDS011;35517;45.272;9.984;2023-03-14T03:08:51;15.77;;;10.82;;
49614;SDS011;35517;45.272;9.984;2023-03-14T03:11:17;17.85;;;11.50;;
49614;SDS011;35517;45.272;9.984;2023-03-14T03:13:44;12.40;;;8.93;;
49614;SDS011;35517;45.272;9.984;2023-03-14T03:16:11;14.07;;;9.30;;
49614;SDS011;35517;45.272;9.984;2023-03-14T03:18:40;17.40;;;9.82;;
49614;SDS011;35517;45.272;9.984;2023-03-14T03:21:07;13.55;;;8.77;;
49614;SDS011;35517;45.272;9.984;2023-03-14T03:23:35;14.32;;;8.85;;
49614;SDS011;35517;45.272;9.984;2023-03-14T03:26:03;15.60;;;7.90;;
49614;SDS011;35517;45.272;9.984;2023-03-14T03:28:30;14.20;;;7.65;;
49614;SDS011;35517;45.272;9.984;2023-03-14T03:30:58;17.05;;;8.63;;
49614;SDS011;35517;45.272;9.984;2023-03-14T03:33:24;13.57;;;9.00;;
49614;SDS011;35517;45.272;9.984;2023-03-14T03:35:51;14.73;;;8.85;;
49614;SDS011;35517;45.272;9.984;2023-03-14T03:38:24;14.70;;;8.05;;
49614;SDS011;35517;45.272;9.984;2023-03-14T03:40:52;12.57;;;8.23;;
49614;SDS011;35517;45.272;9.984;2023-03-14T03:43:22;11.93;;;9.13;;
49614;SDS011;35517;45.272;9.984;2023-03-14T03:45:49;12.52;;;8.15;;
49614;SDS011;35517;45.272;9.984;2023-03-14T03:48:15;17.77;;;8.43;;
49614;SDS011;35517;45.272;9.984;2023-03-14T03:50:46;13.65;;;8.43;;
49614;SDS011;35517;45.272;9.984;2023-03-14T03:53:15;13.95;;;8.13;;
49614;SDS011;35517;45.272;9.984;2023-03-14T03:55:41;15.45;;;7.97;;
49614;SDS011;35517;45.272;9.984;2023-03-14T03:58:09;14.15;;;8.10;;
49614;SDS011;35517;45.272;9.984;2023-03-14T04:00:35;13.05;;;8.65;;
49614;SDS011;35517;45.272;9.984;2023-03-14T04:03:02;11.85;;;7.78;;
49614;SDS011;35517;45.272;9.984;2023-03-14T04:05:29;13.98;;;7.88;;
49614;SDS011;35517;45.272;9.984;2023-03-14T04:08:00;13.50;;;8.70;;
49614;SDS011;35517;45.272;9.984;2023-03-14T04:10:28;14.75;;;8.20;;
49614;SDS011;35517;45.272;9.984;2023-03-14T04:13:15;14.32;;;8.27;;
49614;SDS011;35517;45.272;9.984;2023-03-14T04:15:47;11.90;;;7.80;;
49614;SDS011;35517;45.272;9.984;2023-03-14T04:18:19;12.60;;;8.57;;
49614;SDS011;35517;45.272;9.984;2023-03-14T04:20:50;14.82;;;8.43;;
49614;SDS011;35517;45.272;9.984;2023-03-14T04:23:18;14.25;;;8.07;;
49614;SDS011;35517;45.272;9.984;2023-03-14T04:25:48;14.15;;;8.93;;
49614;SDS011;35517;45.272;9.984;2023-03-14T04:28:14;14.63;;;8.98;;
49614;SDS011;35517;45.272;9.984;2023-03-14T04:30:41;11.80;;;8.23;;
49614;SDS011;35517;45.272;9.984;2023-03-14T04:33:11;14.50;;;7.65;;
49614;SDS011;35517;45.272;9.984;2023-03-14T04:35:46;17.88;;;7.97;;
49614;SDS011;35517;45.272;9.984;2023-03-14T04:38:14;15.77;;;7.05;;
49614;SDS011;35517;45.272;9.984;2023-03-14T04:40:43;11.95;;;7.07;;
49614;SDS011;35517;45.272;9.984;2023-03-14T04:43:11;16.27;;;8.35;;
49614;SDS011;35517;45.272;9.984;2023-03-14T04:45:44;14.35;;;7.50;;
49614;SDS011;35517;45.272;9.984;2023-03-14T04:48:11;18.13;;;8.85;;
49614;SDS011;35517;45.272;9.984;2023-03-14T04:50:39;14.02;;;8.77;;
49614;SDS011;35517;45.272;9.984;2023-03-14T04:53:05;13.40;;;8.88;;
49614;SDS011;35517;45.272;9.984;2023-03-14T04:55:33;19.80;;;8.93;;
49614;SDS011;35517;45.272;9.984;2023-03-14T04:58:00;16.77;;;8.75;;
49614;SDS011;35517;45.272;9.984;2023-03-14T05:00:27;13.80;;;8.75;;
49614;SDS011;35517;45.272;9.984;2023-03-14T05:03:10;17.25;;;9.68;;
49614;SDS011;35517;45.272;9.984;2023-03-14T05:06:11;17.30;;;11.52;;
49614;SDS011;35517;45.272;9.984;2023-03-14T05:08:52;19.25;;;11.13;;
49614;SDS011;35517;45.272;9.984;2023-03-14T05:11:33;17.88;;;11.07;;
49614;SDS011;35517;45.272;9.984;2023-03-14T05:14:29;22.92;;;12.10;;
49614;SDS011;35517;45.272;9.984;2023-03-14T05:17:20;23.35;;;12.57;;
49614;SDS011;35517;45.272;9.984;2023-03-14T05:20:12;17.63;;;12.18;;
49614;SDS011;35517;45.272;9.984;2023-03-14T05:22:52;18.60;;;11.40;;
49614;SDS011;35517;45.272;9.984;2023-03-14T05:25:38;20.40;;;12.18;;
49614;SDS011;35517;45.272;9.984;2023-03-14T05:28:14;22.60;;;11.85;;
49614;SDS011;35517;45.272;9.984;2023-03-14T05:30:56;20.67;;;12.95;;
49614;SDS011;35517;45.272;9.984;2023-03-14T05:33:42;20.15;;;12.00;;
49614;SDS011;35517;45.272;9.984;2023-03-14T05:36:31;21.13;;;12.82;;
49614;SDS011;35517;45.272;9.984;2023-03-14T05:39:11;15.68;;;11.27;;
49614;SDS011;35517;45.272;9.984;2023-03-14T05:42:08;21.33;;;12.07;;
49614;SDS011;35517;45.272;9.984;2023-03-14T05:44:57;18.75;;;11.32;;
49614;SDS011;35517;45.272;9.984;2023-03-14T05:47:44;16.90;;;10.20;;
49614;SDS011;35517;45.272;9.984;2023-03-14T05:50:35;18.63;;;10.10;;
49614;SDS011;35517;45.272;9.984;2023-03-14T05:53:20;21.65;;;9.98;;
49614;SDS011;35517;45.272;9.984;2023-03-14T05:56:13;18.08;;;10.30;;
49614;SDS011;35517;45.272;9.984;2023-03-14T05:58:55;15.45;;;10.32;;
49614;SDS011;35517;45.272;9.984;2023-03-14T06:01:38;16.75;;;10.52;;
49614;SDS011;35517;45.272;9.984;2023-03-14T06:04:13;20.02;;;12.98;;
49614;SDS011;35517;45.272;9.984;2023-03-14T06:06:40;27.92;;;11.68;;
49614;SDS011;35517;45.272;9.984;2023-03-14T06:09:08;19.02;;;11.63;;
49614;SDS011;35517;45.272;9.984;2023-03-14T06:11:38;20.83;;;11.65;;
49614;SDS011;35517;45.272;9.984;2023-03-14T06:14:05;16.10;;;10.90;;
49614;SDS011;35517;45.272;9.984;2023-03-14T06:16:32;16.25;;;10.82;;
49614;SDS011;35517;45.272;9.984;2023-03-14T06:18:59;16.70;;;11.00;;
49614;SDS011;35517;45.272;9.984;2023-03-14T06:21:28;18.55;;;10.98;;
49614;SDS011;35517;45.272;9.984;2023-03-14T06:23:54;22.48;;;11.05;;
49614;SDS011;35517;45.272;9.984;2023-03-14T06:26:23;17.85;;;10.57;;
49614;SDS011;35517;45.272;9.984;2023-03-14T06:28:49;20.95;;;13.00;;
49614;SDS011;35517;45.272;9.984;2023-03-14T06:31:17;15.82;;;12.35;;
49614;SDS011;35517;45.272;9.984;2023-03-14T06:33:51;25.77;;;12.68;;
49614;SDS011;35517;45.272;9.984;2023-03-14T06:36:19;20.40;;;11.77;;
49614;SDS011;35517;45.272;9.984;2023-03-14T06:38:49;24.98;;;13.13;;
49614;SDS011;35517;45.272;9.984;2023-03-14T06:41:15;24.30;;;14.20;;
49614;SDS011;35517;45.272;9.984;2023-03-14T06:43:44;20.55;;;13.90;;
49614;SDS011;35517;45.272;9.984;2023-03-14T06:46:11;22.23;;;13.77;;
49614;SDS011;35517;45.272;9.984;2023-03-14T06:48:40;24.85;;;13.57;;
49614;SDS011;35517;45.272;9.984;2023-03-14T06:51:08;18.40;;;12.15;;
49614;SDS011;35517;45.272;9.984;2023-03-14T06:53:36;25.95;;;14.00;;
49614;SDS011;35517;45.272;9.984;2023-03-14T06:56:03;16.08;;;12.13;;
49614;SDS011;35517;45.272;9.984;2023-03-14T06:58:31;19.40;;;13.68;;
49614;SDS011;35517;45.272;9.984;2023-03-14T07:00:59;20.20;;;13.32;;
49614;SDS011;35517;45.272;9.984;2023-03-14T07:03:31;25.75;;;14.23;;
49614;SDS011;35517;45.272;9.984;2023-03-14T07:05:59;25.40;;;14.55;;
49614;SDS011;35517;45.272;9.984;2023-03-14T07:08:25;27.75;;;14.02;;
49614;SDS011;35517;45.272;9.984;2023-03-14T07:10:52;20.95;;;13.82;;
49614;SDS011;35517;45.272;9.984;2023-03-14T07:13:19;22.77;;;14.57;;
49614;SDS011;35517;45.272;9.984;2023-03-14T07:15:54;20.65;;;13.95;;
49614;SDS011;35517;45.272;9.984;2023-03-14T07:18:21;23.02;;;15.82;;
49614;SDS011;35517;45.272;9.984;2023-03-14T07:20:47;23.05;;;15.70;;
49614;SDS011;35517;45.272;9.984;2023-03-14T07:23:14;27.00;;;15.27;;
49614;SDS011;35517;45.272;9.984;2023-03-14T07:25:47;19.95;;;14.15;;
49614;SDS011;35517;45.272;9.984;2023-03-14T07:28:15;19.27;;;14.00;;
49614;SDS011;35517;45.272;9.984;2023-03-14T07:30:45;28.30;;;14.20;;
49614;SDS011;35517;45.272;9.984;2023-03-14T07:33:17;21.70;;;13.45;;
49614;SDS011;35517;45.272;9.984;2023-03-14T07:35:43;24.85;;;14.52;;
49614;SDS011;35517;45.272;9.984;2023-03-14T07:38:10;18.98;;;13.07;;
49614;SDS011;35517;45.272;9.984;2023-03-14T07:40:44;28.25;;;13.15;;
49614;SDS011;35517;45.272;9.984;2023-03-14T07:43:10;24.60;;;13.23;;
49614;SDS011;35517;45.272;9.984;2023-03-14T07:45:45;20.85;;;13.30;;
49614;SDS011;35517;45.272;9.984;2023-03-14T07:48:11;19.95;;;12.55;;
49614;SDS011;35517;45.272;9.984;2023-03-14T07:50:38;19.48;;;12.85;;
49614;SDS011;35517;45.272;9.984;2023-03-14T07:53:04;18.20;;;13.65;;
49614;SDS011;35517;45.272;9.984;2023-03-14T07:55:31;17.10;;;12.88;;
49614;SDS011;35517;45.272;9.984;2023-03-14T07:57:57;21.67;;;12.93;;
49614;SDS011;35517;45.272;9.984;2023-03-14T08:00:24;23.55;;;13.38;;
49614;SDS011;35517;45.272;9.984;2023-03-14T08:02:50;19.85;;;12.60;;
49614;SDS011;35517;45.272;9.984;2023-03-14T08:05:17;17.88;;;12.68;;
49614;SDS011;35517;45.272;9.984;2023-03-14T08:07:43;16.00;;;11.80;;
49614;SDS011;35517;45.272;9.984;2023-03-14T08:10:10;20.73;;;12.90;;
49614;SDS011;35517;45.272;9.984;2023-03-14T08:12:41;20.52;;;12.77;;
49614;SDS011;35517;45.272;9.984;2023-03-14T08:15:07;19.17;;;14.35;;
49614;SDS011;35517;45.272;9.984;2023-03-14T08:17:34;17.80;;;13.35;;
49614;SDS011;35517;45.272;9.984;2023-03-14T08:20:00;20.40;;;14.70;;
49614;SDS011;35517;45.272;9.984;2023-03-14T08:22:32;20.50;;;13.77;;
49614;SDS011;35517;45.272;9.984;2023-03-14T08:24:58;27.83;;;16.00;;
49614;SDS011;35517;45.272;9.984;2023-03-14T08:27:25;23.00;;;14.90;;
49614;SDS011;35517;45.272;9.984;2023-03-14T08:29:51;23.67;;;14.35;;
49614;SDS011;35517;45.272;9.984;2023-03-14T08:32:18;21.05;;;14.23;;
49614;SDS011;35517;45.272;9.984;2023-03-14T08:34:45;20.02;;;13.95;;
49614;SDS011;35517;45.272;9.984;2023-03-14T08:37:12;22.27;;;13.68;;
49614;SDS011;35517;45.272;9.984;2023-03-14T08:39:38;18.65;;;13.73;;
49614;SDS011;35517;45.272;9.984;2023-03-14T08:42:05;21.30;;;14.93;;
49614;SDS011;35517;45.272;9.984;2023-03-14T08:44:31;22.65;;;13.55;;
49614;SDS011;35517;45.272;9.984;2023-03-14T08:46:58;19.27;;;12.73;;
49614;SDS011;35517;45.272;9.984;2023-03-14T08:49:24;17.98;;;13.48;;
49614;SDS011;35517;45.272;9.984;2023-03-14T08:51:51;21.10;;;15.70;;
49614;SDS011;35517;45.272;9.984;2023-03-14T08:54:17;22.13;;;15.00;;
49614;SDS011;35517;45.272;9.984;2023-03-14T08:56:44;19.30;;;14.05;;
49614;SDS011;35517;45.272;9.984;2023-03-14T08:59:11;20.73;;;13.75;;
49614;SDS011;35517;45.272;9.984;2023-03-14T09:01:37;18.70;;;12.82;;
49614;SDS011;35517;45.272;9.984;2023-03-14T09:04:04;20.35;;;14.20;;
49614;SDS011;35517;45.272;9.984;2023-03-14T09:06:30;26.80;;;15.65;;
49614;SDS011;35517;45.272;9.984;2023-03-14T09:08:57;21.98;;;13.77;;
49614;SDS011;35517;45.272;9.984;2023-03-14T09:11:23;18.80;;;13.45;;
49614;SDS011;35517;45.272;9.984;2023-03-14T09:13:50;19.50;;;13.77;;
49614;SDS011;35517;45.272;9.984;2023-03-14T09:16:16;23.38;;;14.52;;
49614;SDS011;35517;45.272;9.984;2023-03-14T09:18:44;21.77;;;13.55;;
49614;SDS011;35517;45.272;9.984;2023-03-14T09:21:11;19.50;;;13.45;;
49614;SDS011;35517;45.272;9.984;2023-03-14T09:23:37;17.77;;;11.65;;
49614;SDS011;35517;45.272;9.984;2023-03-14T09:26:05;15.32;;;11.27;;
49614;SDS011;35517;45.272;9.984;2023-03-14T09:28:32;18.50;;;12.52;;
49614;SDS011;35517;45.272;9.984;2023-03-14T09:31:05;16.40;;;11.52;;
49614;SDS011;35517;45.272;9.984;2023-03-14T09:33:31;16.52;;;11.73;;
49614;SDS011;35517;45.272;9.984;2023-03-14T09:35:58;18.92;;;11.63;;
49614;SDS011;35517;45.272;9.984;2023-03-14T09:38:25;18.38;;;12.15;;
49614;SDS011;35517;45.272;9.984;2023-03-14T09:40:52;16.88;;;14.48;;
49614;SDS011;35517;45.272;9.984;2023-03-14T09:43:19;15.23;;;10.82;;
49614;SDS011;35517;45.272;9.984;2023-03-14T09:45:47;13.57;;;11.02;;
49614;SDS011;35517;45.272;9.984;2023-03-14T09:48:16;15.98;;;10.90;;
49614;SDS011;35517;45.272;9.984;2023-03-14T09:50:46;16.33;;;10.82;;
49614;SDS011;35517;45.272;9.984;2023-03-14T09:53:15;18.20;;;10.73;;
49614;SDS011;35517;45.272;9.984;2023-03-14T09:55:43;14.13;;;11.25;;
49614;SDS011;35517;45.272;9.984;2023-03-14T09:58:11;16.60;;;11.60;;
49614;SDS011;35517;45.272;9.984;2023-03-14T10:00:38;15.18;;;11.98;;
49614;SDS011;35517;45.272;9.984;2023-03-14T10:05:38;17.80;;;11.50;;
49614;SDS011;35517;45.272;9.984;2023-03-14T10:08:04;17.85;;;12.50;;
49614;SDS011;35517;45.272;9.984;2023-03-14T10:10:31;15.95;;;12.30;;
49614;SDS011;35517;45.272;9.984;2023-03-14T10:12:59;20.42;;;13.90;;
49614;SDS011;35517;45.272;9.984;2023-03-14T10:15:27;18.33;;;12.60;;
49614;SDS011;35517;45.272;9.984;2023-03-14T10:17:58;13.25;;;10.95;;
49614;SDS011;35517;45.272;9.984;2023-03-14T10:25:28;15.27;;;11.80;;
49614;SDS011;35517;45.272;9.984;2023-03-14T10:27:55;15.80;;;11.25;;
49614;SDS011;35517;45.272;9.984;2023-03-14T10:33:11;17.15;;;9.73;;
49614;SDS011;35517;45.272;9.984;2023-03-14T10:35:38;14.75;;;9.48;;
49614;SDS011;35517;45.272;9.984;2023-03-14T10:38:04;17.55;;;11.07;;
49614;SDS011;35517;45.272;9.984;2023-03-14T10:40:32;15.88;;;10.90;;
49614;SDS011;35517;45.272;9.984;2023-03-14T10:42:59;16.40;;;9.85;;
49614;SDS011;35517;45.272;9.984;2023-03-14T10:45:29;17.83;;;9.85;;
49614;SDS011;35517;45.272;9.984;2023-03-14T10:47:58;18.52;;;10.15;;
49614;SDS011;35517;45.272;9.984;2023-03-14T10:52:52;17.60;;;9.98;;
49614;SDS011;35517;45.272;9.984;2023-03-14T10:55:18;12.68;;;9.10;;
49614;SDS011;35517;45.272;9.984;2023-03-14T10:57:45;17.67;;;10.23;;
49614;SDS011;35517;45.272;9.984;2023-03-14T11:00:16;19.42;;;11.18;;
49614;SDS011;35517;45.272;9.984;2023-03-14T11:08:23;22.20;;;12.02;;
49614;SDS011;35517;45.272;9.984;2023-03-14T11:10:53;16.85;;;10.50;;
49614;SDS011;35517;45.272;9.984;2023-03-14T11:13:34;19.63;;;11.35;;
49614;SDS011;35517;45.272;9.984;2023-03-14T11:16:06;18.92;;;11.27;;
49614;SDS011;35517;45.272;9.984;2023-03-14T11:28:40;18.67;;;11.13;;
49614;SDS011;35517;45.272;9.984;2023-03-14T11:31:28;21.02;;;12.20;;
49614;SDS011;35517;45.272;9.984;2023-03-14T11:36:24;15.73;;;10.70;;
49614;SDS011;35517;45.272;9.984;2023-03-14T11:38:55;16.57;;;11.23;;
49614;SDS011;35517;45.272;9.984;2023-03-14T11:41:24;19.25;;;11.43;;
49614;SDS011;35517;45.272;9.984;2023-03-14T11:43:58;14.73;;;11.20;;
49614;SDS011;35517;45.272;9.984;2023-03-14T11:48:57;13.73;;;10.52;;
49614;SDS011;35517;45.272;9.984;2023-03-14T11:51:27;18.63;;;10.50;;
49614;SDS011;35517;45.272;9.984;2023-03-14T11:53:57;13.65;;;10.20;;
49614;SDS011;35517;45.272;9.984;2023-03-14T11:59:15;12.48;;;8.80;;
49614;SDS011;35517;45.272;9.984;2023-03-14T12:06:56;12.73;;;10.25;;
49614;SDS011;35517;45.272;9.984;2023-03-14T12:09:23;13.02;;;9.52;;
49614;SDS011;35517;45.272;9.984;2023-03-14T12:11:56;14.65;;;10.63;;
49614;SDS011;35517;45.272;9.984;2023-03-14T12:14:28;15.20;;;10.95;;
49614;SDS011;35517;45.272;9.984;2023-03-14T12:16:56;13.35;;;10.55;;
49614;SDS011;35517;45.272;9.984;2023-03-14T12:19:25;13.68;;;10.20;;
49614;SDS011;35517;45.272;9.984;2023-03-14T12:21:57;17.75;;;12.38;;
49614;SDS011;35517;45.272;9.984;2023-03-14T12:24:26;15.45;;;10.82;;
49614;SDS011;35517;45.272;9.984;2023-03-14T12:26:54;13.10;;;9.45;;
49614;SDS011;35517;45.272;9.984;2023-03-14T12:29:21;12.70;;;9.25;;
49614;SDS011;35517;45.272;9.984;2023-03-14T12:31:49;13.98;;;10.10;;
49614;SDS011;35517;45.272;9.984;2023-03-14T12:42:04;14.65;;;10.10;;
49614;SDS011;35517;45.272;9.984;2023-03-14T12:46:58;15.50;;;11.02;;
49614;SDS011;35517;45.272;9.984;2023-03-14T12:49:31;14.35;;;10.85;;
49614;SDS011;35517;45.272;9.984;2023-03-14T12:51:58;14.00;;;10.02;;
49614;SDS011;35517;45.272;9.984;2023-03-14T12:54:28;15.52;;;10.27;;
49614;SDS011;35517;45.272;9.984;2023-03-14T13:02:02;15.48;;;10.82;;
49614;SDS011;35517;45.272;9.984;2023-03-14T13:04:36;14.70;;;10.25;;
49614;SDS011;35517;45.272;9.984;2023-03-14T13:07:03;13.43;;;10.70;;
49614;SDS011;35517;45.272;9.984;2023-03-14T13:12:09;14.32;;;10.73;;
49614;SDS011;35517;45.272;9.984;2023-03-14T13:14:36;14.40;;;11.38;;
49614;SDS011;35517;45.272;9.984;2023-03-14T13:17:10;16.05;;;11.93;;
49614;SDS011;35517;45.272;9.984;2023-03-14T13:19:37;13.95;;;11.18;;
49614;SDS011;35517;45.272;9.984;2023-03-14T13:22:05;13.82;;;11.35;;
49614;SDS011;35517;45.272;9.984;2023-03-14T13:24:35;16.48;;;11.88;;
49614;SDS011;35517;45.272;9.984;2023-03-14T13:27:01;13.68;;;11.27;;
49614;SDS011;35517;45.272;9.984;2023-03-14T13:29:29;15.18;;;11.85;;
49614;SDS011;35517;45.272;9.984;2023-03-14T13:32:00;14.65;;;10.60;;
49614;SDS011;35517;45.272;9.984;2023-03-14T13:34:33;16.65;;;12.02;;
49614;SDS011;35517;45.272;9.984;2023-03-14T13:37:00;16.15;;;11.07;;
49614;SDS011;35517;45.272;9.984;2023-03-14T13:39:27;15.23;;;12.02;;
49614;SDS011;35517;45.272;9.984;2023-03-14T13:41:57;15.20;;;11.40;;
49614;SDS011;35517;45.272;9.984;2023-03-14T13:44:29;13.63;;;11.55;;
49614;SDS011;35517;45.272;9.984;2023-03-14T13:46:57;17.35;;;11.95;;
49614;SDS011;35517;45.272;9.984;2023-03-14T13:49:25;18.63;;;11.68;;
49614;SDS011;35517;45.272;9.984;2023-03-14T13:51:52;17.65;;;12.32;;
49614;SDS011;35517;45.272;9.984;2023-03-14T13:54:19;14.88;;;12.75;;
49614;SDS011;35517;45.272;9.984;2023-03-14T13:56:46;17.50;;;12.80;;
49614;SDS011;35517;45.272;9.984;2023-03-14T13:59:22;19.98;;;12.05;;
49614;SDS011;35517;45.272;9.984;2023-03-14T14:01:49;17.63;;;13.65;;
49614;SDS011;35517;45.272;9.984;2023-03-14T14:04:17;17.20;;;12.35;;
49614;SDS011;35517;45.272;9.984;2023-03-14T14:06:46;25.75;;;14.48;;
49614;SDS011;35517;45.272;9.984;2023-03-14T14:09:15;18.40;;;12.63;;
49614;SDS011;35517;45.272;9.984;2023-03-14T14:11:43;15.80;;;12.80;;
49614;SDS011;35517;45.272;9.984;2023-03-14T14:14:12;15.80;;;11.35;;
49614;SDS011;35517;45.272;9.984;2023-03-14T14:16:39;17.38;;;12.63;;
49614;SDS011;35517;45.272;9.984;2023-03-14T14:19:07;13.02;;;9.55;;
49614;SDS011;35517;45.272;9.984;2023-03-14T14:21:34;16.92;;;10.57;;
49614;SDS011;35517;45.272;9.984;2023-03-14T14:24:00;13.10;;;9.75;;
49614;SDS011;35517;45.272;9.984;2023-03-14T14:26:27;11.27;;;9.63;;
49614;SDS011;35517;45.272;9.984;2023-03-14T14:29:04;10.93;;;9.70;;
49614;SDS011;35517;45.272;9.984;2023-03-14T14:31:31;11.85;;;10.52;;
49614;SDS011;35517;45.272;9.984;2023-03-14T14:33:58;15.90;;;10.05;;
49614;SDS011;35517;45.272;9.984;2023-03-14T14:36:41;11.48;;;9.57;;
49614;SDS011;35517;45.272;9.984;2023-03-14T14:39:17;13.07;;;9.90;;
49614;SDS011;35517;45.272;9.984;2023-03-14T14:41:44;16.90;;;10.68;;
49614;SDS011;35517;45.272;9.984;2023-03-14T14:44:13;13.63;;;10.80;;
49614;SDS011;35517;45.272;9.984;2023-03-14T14:46:42;11.75;;;10.07;;
49614;SDS011;35517;45.272;9.984;2023-03-14T14:49:10;14.18;;;10.13;;
49614;SDS011;35517;45.272;9.984;2023-03-14T14:51:44;13.70;;;10.38;;
49614;SDS011;35517;45.272;9.984;2023-03-14T14:54:14;12.05;;;10.20;;
49614;SDS011;35517;45.272;9.984;2023-03-14T14:56:45;11.98;;;9.27;;
49614;SDS011;35517;45.272;9.984;2023-03-14T14:59:20;11.45;;;8.55;;
49614;SDS011;35517;45.272;9.984;2023-03-14T15:01:47;10.48;;;8.98;;
49614;SDS011;35517;45.272;9.984;2023-03-14T15:04:15;17.17;;;9.48;;
49614;SDS011;35517;45.272;9.984;2023-03-14T15:06:42;14.93;;;8.90;;
49614;SDS011;35517;45.272;9.984;2023-03-14T15:09:12;12.57;;;9.93;;
49614;SDS011;35517;45.272;9.984;2023-03-14T15:11:39;8.93;;;7.80;;
49614;SDS011;35517;45.272;9.984;2023-03-14T15:14:05;10.82;;;8.52;;
49614;SDS011;35517;45.272;9.984;2023-03-14T15:16:32;10.77;;;8.27;;
49614;SDS011;35517;45.272;9.984;2023-03-14T15:18:59;13.60;;;9.68;;
49614;SDS011;35517;45.272;9.984;2023-03-14T15:21:27;10.73;;;7.93;;
49614;SDS011;35517;45.272;9.984;2023-03-14T15:23:54;9.32;;;8.02;;
49614;SDS011;35517;45.272;9.984;2023-03-14T15:26:22;12.13;;;8.68;;
49614;SDS011;35517;45.272;9.984;2023-03-14T15:28:49;12.20;;;7.80;;
49614;SDS011;35517;45.272;9.984;2023-03-14T15:31:16;15.18;;;7.75;;
49614;SDS011;35517;45.272;9.984;2023-03-14T15:33:43;9.52;;;7.75;;
49614;SDS011;35517;45.272;9.984;2023-03-14T15:38:49;13.65;;;9.07;;
49614;SDS011;35517;45.272;9.984;2023-03-14T15:41:16;14.05;;;9.00;;
49614;SDS011;35517;45.272;9.984;2023-03-14T15:43:43;13.60;;;9.40;;
49614;SDS011;35517;45.272;9.984;2023-03-14T15:46:10;11.82;;;8.68;;
49614;SDS011;35517;45.272;9.984;2023-03-14T15:48:37;10.63;;;8.82;;
49614;SDS011;35517;45.272;9.984;2023-03-14T15:51:03;12.48;;;8.95;;
49614;SDS011;35517;45.272;9.984;2023-03-14T15:53:30;10.23;;;8.88;;
49614;SDS011;35517;45.272;9.984;2023-03-14T15:55:56;10.93;;;8.90;;
49614;SDS011;35517;45.272;9.984;2023-03-14T15:58:23;13.85;;;9.52;;
49614;SDS011;35517;45.272;9.984;2023-03-14T16:00:49;13.85;;;9.93;;
49614;SDS011;35517;45.272;9.984;2023-03-14T16:03:16;12.90;;;10.30;;